Sao Caitano, Brazil
Current Conditions -  °F | °C
As of 1:00 PM on Tuesday 21 Oct 2014 (Local Time) from SBKG Reporting Station
Scattered Clouds Scattered Clouds  
Wind Chill: 88°   Ceiling: Unl
Heat Index: 88°   Visibility: 6mi
Dew Point: 61°   Wind: 12mph
Humidity: 40%   Direction: 100°E
Pressure: 29.94"   Gusts: NA
Location:  8.33°S, 36.14°W
Report Text: SBKG 211600Z 10010KT 9999 SCT046 31/16 Q1014
Loading
Personal Weather Stations






























Interactive Weather Map
Tropical Storm Tracking
New forecast layout! Learn more

10-Day Weather Forecast

Advertisements
Track Severe Weather on mobile